sensor_id;sensor_type;location;lat;lon;timestamp;temperature;humidity
51988;DHT22;38003;52.012;4.346;2022-08-01T00:00:06;23.00;64.20
51988;DHT22;38003;52.012;4.346;2022-08-01T00:02:35;23.00;64.40
51988;DHT22;38003;52.012;4.346;2022-08-01T00:05:06;22.90;64.40
51988;DHT22;38003;52.012;4.346;2022-08-01T00:07:34;23.00;64.50
51988;DHT22;38003;52.012;4.346;2022-08-01T00:10:03;22.90;64.20
51988;DHT22;38003;52.012;4.346;2022-08-01T00:12:33;23.00;64.30
51988;DHT22;38003;52.012;4.346;2022-08-01T00:15:01;22.80;64.40
51988;DHT22;38003;52.012;4.346;2022-08-01T00:17:29;22.90;64.50
51988;DHT22;38003;52.012;4.346;2022-08-01T00:19:57;22.80;64.60
51988;DHT22;38003;52.012;4.346;2022-08-01T00:22:25;22.80;64.50
51988;DHT22;38003;52.012;4.346;2022-08-01T00:24:53;22.80;64.30
51988;DHT22;38003;52.012;4.346;2022-08-01T00:27:21;22.90;64.20
51988;DHT22;38003;52.012;4.346;2022-08-01T00:29:51;22.90;64.10
51988;DHT22;38003;52.012;4.346;2022-08-01T00:32:39;22.80;64.60
51988;DHT22;38003;52.012;4.346;2022-08-01T00:35:07;22.80;64.40
51988;DHT22;38003;52.012;4.346;2022-08-01T00:37:35;22.80;64.60
51988;DHT22;38003;52.012;4.346;2022-08-01T00:40:04;23.10;64.30
51988;DHT22;38003;52.012;4.346;2022-08-01T00:42:32;22.80;64.50
51988;DHT22;38003;52.012;4.346;2022-08-01T00:45:08;22.70;64.80
51988;DHT22;38003;52.012;4.346;2022-08-01T00:47:36;22.60;65.30
51988;DHT22;38003;52.012;4.346;2022-08-01T00:50:05;22.50;65.00
51988;DHT22;38003;52.012;4.346;2022-08-01T00:52:33;22.50;65.00
51988;DHT22;38003;52.012;4.346;2022-08-01T00:55:02;22.50;65.20
51988;DHT22;38003;52.012;4.346;2022-08-01T00:57:30;22.60;64.60
51988;DHT22;38003;52.012;4.346;2022-08-01T01:00:19;22.60;64.60
51988;DHT22;38003;52.012;4.346;2022-08-01T01:02:53;22.60;64.80
51988;DHT22;38003;52.012;4.346;2022-08-01T01:05:21;22.80;64.60
51988;DHT22;38003;52.012;4.346;2022-08-01T01:07:55;22.70;64.40
51988;DHT22;38003;52.012;4.346;2022-08-01T01:10:29;22.80;64.60
51988;DHT22;38003;52.012;4.346;2022-08-01T01:13:02;22.80;65.30
51988;DHT22;38003;52.012;4.346;2022-08-01T01:15:39;23.10;65.20
51988;DHT22;38003;52.012;4.346;2022-08-01T01:18:11;22.90;64.90
51988;DHT22;38003;52.012;4.346;2022-08-01T01:20:42;22.70;64.80
51988;DHT22;38003;52.012;4.346;2022-08-01T01:23:31;22.70;65.00
51988;DHT22;38003;52.012;4.346;2022-08-01T01:26:21;22.70;65.20
51988;DHT22;38003;52.012;4.346;2022-08-01T01:28:59;22.70;65.00
51988;DHT22;38003;52.012;4.346;2022-08-01T01:31:31;22.70;64.70
51988;DHT22;38003;52.012;4.346;2022-08-01T01:34:01;22.70;64.60
51988;DHT22;38003;52.012;4.346;2022-08-01T01:36:30;22.70;64.80
51988;DHT22;38003;52.012;4.346;2022-08-01T01:39:00;22.60;64.70
51988;DHT22;38003;52.012;4.346;2022-08-01T01:41:29;22.70;64.60
51988;DHT22;38003;52.012;4.346;2022-08-01T01:44:00;22.70;64.50
51988;DHT22;38003;52.012;4.346;2022-08-01T01:46:29;23.20;64.70
51988;DHT22;38003;52.012;4.346;2022-08-01T01:48:58;22.70;64.50
51988;DHT22;38003;52.012;4.346;2022-08-01T01:51:28;23.20;64.60
51988;DHT22;38003;52.012;4.346;2022-08-01T01:53:57;22.70;64.30
51988;DHT22;38003;52.012;4.346;2022-08-01T01:56:27;22.60;64.40
51988;DHT22;38003;52.012;4.346;2022-08-01T01:58:59;22.70;64.50
51988;DHT22;38003;52.012;4.346;2022-08-01T02:01:29;22.60;64.40
51988;DHT22;38003;52.012;4.346;2022-08-01T02:04:20;22.60;64.40
51988;DHT22;38003;52.012;4.346;2022-08-01T02:06:51;22.60;64.50
51988;DHT22;38003;52.012;4.346;2022-08-01T02:09:21;22.60;64.50
51988;DHT22;38003;52.012;4.346;2022-08-01T02:11:51;22.60;64.50
51988;DHT22;38003;52.012;4.346;2022-08-01T02:14:41;22.50;64.60
51988;DHT22;38003;52.012;4.346;2022-08-01T02:17:14;22.70;64.70
51988;DHT22;38003;52.012;4.346;2022-08-01T02:19:43;22.60;64.30
51988;DHT22;38003;52.012;4.346;2022-08-01T02:22:16;22.60;64.30
51988;DHT22;38003;52.012;4.346;2022-08-01T02:24:50;22.60;64.60
51988;DHT22;38003;52.012;4.346;2022-08-01T02:27:25;22.80;64.70
51988;DHT22;38003;52.012;4.346;2022-08-01T02:29:58;22.50;64.60
51988;DHT22;38003;52.012;4.346;2022-08-01T02:32:31;22.40;64.50
51988;DHT22;38003;52.012;4.346;2022-08-01T02:35:01;22.50;64.40
51988;DHT22;38003;52.012;4.346;2022-08-01T02:37:33;22.50;64.20
51988;DHT22;38003;52.012;4.346;2022-08-01T02:40:03;22.60;64.50
51988;DHT22;38003;52.012;4.346;2022-08-01T02:42:32;22.40;64.70
51988;DHT22;38003;52.012;4.346;2022-08-01T02:45:04;22.30;64.60
51988;DHT22;38003;52.012;4.346;2022-08-01T02:47:36;22.40;64.60
51988;DHT22;38003;52.012;4.346;2022-08-01T02:50:06;22.40;64.70
51988;DHT22;38003;52.012;4.346;2022-08-01T02:52:36;22.40;64.40
51988;DHT22;38003;52.012;4.346;2022-08-01T02:55:06;22.40;64.60
51988;DHT22;38003;52.012;4.346;2022-08-01T02:57:35;22.40;64.40
51988;DHT22;38003;52.012;4.346;2022-08-01T03:00:23;22.40;64.50
51988;DHT22;38003;52.012;4.346;2022-08-01T03:02:52;22.50;64.40
51988;DHT22;38003;52.012;4.346;2022-08-01T03:05:22;22.40;64.20
51988;DHT22;38003;52.012;4.346;2022-08-01T03:07:52;22.50;64.10
51988;DHT22;38003;52.012;4.346;2022-08-01T03:10:21;22.40;64.30
51988;DHT22;38003;52.012;4.346;2022-08-01T03:12:51;22.50;64.00
51988;DHT22;38003;52.012;4.346;2022-08-01T03:15:21;22.60;64.00
51988;DHT22;38003;52.012;4.346;2022-08-01T03:17:51;22.40;64.00
51988;DHT22;38003;52.012;4.346;2022-08-01T03:20:23;22.60;64.00
51988;DHT22;38003;52.012;4.346;2022-08-01T03:22:53;22.40;64.60
51988;DHT22;38003;52.012;4.346;2022-08-01T03:25:23;22.40;64.30
51988;DHT22;38003;52.012;4.346;2022-08-01T03:27:56;22.40;64.50
51988;DHT22;38003;52.012;4.346;2022-08-01T03:30:28;22.40;65.20
51988;DHT22;38003;52.012;4.346;2022-08-01T03:32:57;22.70;64.60
51988;DHT22;38003;52.012;4.346;2022-08-01T03:35:29;22.40;64.20
51988;DHT22;38003;52.012;4.346;2022-08-01T03:37:59;22.50;64.30
51988;DHT22;38003;52.012;4.346;2022-08-01T03:40:47;22.50;64.30
51988;DHT22;38003;52.012;4.346;2022-08-01T03:43:19;22.50;64.20
51988;DHT22;38003;52.012;4.346;2022-08-01T03:45:51;22.50;64.10
51988;DHT22;38003;52.012;4.346;2022-08-01T03:48:28;22.60;64.20
51988;DHT22;38003;52.012;4.346;2022-08-01T03:50:58;22.60;64.20
51988;DHT22;38003;52.012;4.346;2022-08-01T03:53:30;22.60;64.20
51988;DHT22;38003;52.012;4.346;2022-08-01T03:56:00;22.60;64.40
51988;DHT22;38003;52.012;4.346;2022-08-01T03:58:29;22.60;64.30
51988;DHT22;38003;52.012;4.346;2022-08-01T04:00:59;22.60;64.20
51988;DHT22;38003;52.012;4.346;2022-08-01T04:03:27;22.60;64.30
51988;DHT22;38003;52.012;4.346;2022-08-01T04:05:56;22.60;64.20
51988;DHT22;38003;52.012;4.346;2022-08-01T04:08:34;22.70;64.10
51988;DHT22;38003;52.012;4.346;2022-08-01T04:11:02;22.90;64.10
51988;DHT22;38003;52.012;4.346;2022-08-01T04:13:30;22.90;64.10
51988;DHT22;38003;52.012;4.346;2022-08-01T04:16:05;22.70;64.00
51988;DHT22;38003;52.012;4.346;2022-08-01T04:18:33;22.70;64.20
51988;DHT22;38003;52.012;4.346;2022-08-01T04:21:01;22.60;64.20
51988;DHT22;38003;52.012;4.346;2022-08-01T04:23:30;22.60;64.30
51988;DHT22;38003;52.012;4.346;2022-08-01T04:25:59;22.60;64.20
51988;DHT22;38003;52.012;4.346;2022-08-01T04:28:32;22.60;64.30
51988;DHT22;38003;52.012;4.346;2022-08-01T04:31:05;22.70;64.00
51988;DHT22;38003;52.012;4.346;2022-08-01T04:33:34;22.70;64.10
51988;DHT22;38003;52.012;4.346;2022-08-01T04:36:03;22.70;64.10
51988;DHT22;38003;52.012;4.346;2022-08-01T04:38:34;22.70;64.10
51988;DHT22;38003;52.012;4.346;2022-08-01T04:41:03;22.70;64.20
51988;DHT22;38003;52.012;4.346;2022-08-01T04:43:35;22.70;64.20
51988;DHT22;38003;52.012;4.346;2022-08-01T04:46:05;22.80;64.20
51988;DHT22;38003;52.012;4.346;2022-08-01T04:48:36;23.10;64.30
51988;DHT22;38003;52.012;4.346;2022-08-01T04:51:11;22.70;64.00
51988;DHT22;38003;52.012;4.346;2022-08-01T04:53:42;22.80;64.00
51988;DHT22;38003;52.012;4.346;2022-08-01T04:56:10;22.80;64.00
51988;DHT22;38003;52.012;4.346;2022-08-01T04:58:40;22.80;63.90
51988;DHT22;38003;52.012;4.346;2022-08-01T05:01:10;22.80;63.90
51988;DHT22;38003;52.012;4.346;2022-08-01T05:03:38;22.80;64.00
51988;DHT22;38003;52.012;4.346;2022-08-01T05:06:06;22.80;64.10
51988;DHT22;38003;52.012;4.346;2022-08-01T05:08:34;22.80;64.10
51988;DHT22;38003;52.012;4.346;2022-08-01T05:11:03;22.80;64.20
51988;DHT22;38003;52.012;4.346;2022-08-01T05:13:31;22.80;64.50
51988;DHT22;38003;52.012;4.346;2022-08-01T05:15:59;22.80;64.30
51988;DHT22;38003;52.012;4.346;2022-08-01T05:18:31;22.80;64.20
51988;DHT22;38003;52.012;4.346;2022-08-01T05:21:00;22.70;64.60
51988;DHT22;38003;52.012;4.346;2022-08-01T05:23:28;22.70;64.60
51988;DHT22;38003;52.012;4.346;2022-08-01T05:26:09;22.70;64.50
51988;DHT22;38003;52.012;4.346;2022-08-01T05:28:40;22.80;64.50
51988;DHT22;38003;52.012;4.346;2022-08-01T05:31:08;22.70;64.40
51988;DHT22;38003;52.012;4.346;2022-08-01T05:33:37;22.70;64.30
51988;DHT22;38003;52.012;4.346;2022-08-01T05:36:05;23.30;64.70
51988;DHT22;38003;52.012;4.346;2022-08-01T05:38:33;22.70;64.30
51988;DHT22;38003;52.012;4.346;2022-08-01T05:41:01;22.70;64.40
51988;DHT22;38003;52.012;4.346;2022-08-01T05:43:29;22.70;64.30
51988;DHT22;38003;52.012;4.346;2022-08-01T05:45:57;22.60;64.80
51988;DHT22;38003;52.012;4.346;2022-08-01T05:48:25;22.60;64.50
51988;DHT22;38003;52.012;4.346;2022-08-01T05:50:55;22.70;64.60
51988;DHT22;38003;52.012;4.346;2022-08-01T05:53:24;22.70;64.60
51988;DHT22;38003;52.012;4.346;2022-08-01T05:55:52;22.50;65.50
51988;DHT22;38003;52.012;4.346;2022-08-01T05:58:20;22.50;64.90
51988;DHT22;38003;52.012;4.346;2022-08-01T06:00:48;23.00;65.00
51988;DHT22;38003;52.012;4.346;2022-08-01T06:03:16;22.50;64.70
51988;DHT22;38003;52.012;4.346;2022-08-01T06:05:44;23.00;65.20
51988;DHT22;38003;52.012;4.346;2022-08-01T06:08:13;22.40;65.00
51988;DHT22;38003;52.012;4.346;2022-08-01T06:10:41;22.40;65.10
51988;DHT22;38003;52.012;4.346;2022-08-01T06:13:09;22.40;65.10
51988;DHT22;38003;52.012;4.346;2022-08-01T06:15:37;22.40;65.00
51988;DHT22;38003;52.012;4.346;2022-08-01T06:18:05;22.50;65.20
51988;DHT22;38003;52.012;4.346;2022-08-01T06:20:33;22.40;65.20
51988;DHT22;38003;52.012;4.346;2022-08-01T06:23:01;22.40;65.10
51988;DHT22;38003;52.012;4.346;2022-08-01T06:25:52;22.40;65.20
51988;DHT22;38003;52.012;4.346;2022-08-01T06:28:20;22.40;65.50
51988;DHT22;38003;52.012;4.346;2022-08-01T06:30:48;22.40;65.00
51988;DHT22;38003;52.012;4.346;2022-08-01T06:33:16;22.40;65.30
51988;DHT22;38003;52.012;4.346;2022-08-01T06:35:44;22.40;65.30
51988;DHT22;38003;52.012;4.346;2022-08-01T06:38:12;22.30;65.50
51988;DHT22;38003;52.012;4.346;2022-08-01T06:40:40;22.70;65.50
51988;DHT22;38003;52.012;4.346;2022-08-01T06:43:09;22.30;65.40
51988;DHT22;38003;52.012;4.346;2022-08-01T06:45:38;22.30;65.60
51988;DHT22;38003;52.012;4.346;2022-08-01T06:48:06;22.40;65.50
51988;DHT22;38003;52.012;4.346;2022-08-01T06:50:34;22.40;65.40
51988;DHT22;38003;52.012;4.346;2022-08-01T06:53:03;22.40;65.70
51988;DHT22;38003;52.012;4.346;2022-08-01T06:55:31;22.40;65.40
51988;DHT22;38003;52.012;4.346;2022-08-01T06:57:59;22.50;65.50
51988;DHT22;38003;52.012;4.346;2022-08-01T07:01:02;22.90;65.70
51988;DHT22;38003;52.012;4.346;2022-08-01T07:03:49;22.50;65.60
51988;DHT22;38003;52.012;4.346;2022-08-01T07:06:36;22.80;66.20
51988;DHT22;38003;52.012;4.346;2022-08-01T07:09:04;22.40;65.70
51988;DHT22;38003;52.012;4.346;2022-08-01T07:11:54;22.50;65.10
51988;DHT22;38003;52.012;4.346;2022-08-01T07:14:23;22.60;65.50
51988;DHT22;38003;52.012;4.346;2022-08-01T07:16:52;22.70;65.20
51988;DHT22;38003;52.012;4.346;2022-08-01T07:19:20;22.40;65.20
51988;DHT22;38003;52.012;4.346;2022-08-01T07:21:48;22.40;65.30
51988;DHT22;38003;52.012;4.346;2022-08-01T07:24:16;22.30;65.30
51988;DHT22;38003;52.012;4.346;2022-08-01T07:26:47;22.40;65.20
51988;DHT22;38003;52.012;4.346;2022-08-01T07:29:21;22.40;65.00
51988;DHT22;38003;52.012;4.346;2022-08-01T07:31:49;22.30;65.30
51988;DHT22;38003;52.012;4.346;2022-08-01T07:34:18;22.40;65.10
51988;DHT22;38003;52.012;4.346;2022-08-01T07:36:46;22.30;65.20
51988;DHT22;38003;52.012;4.346;2022-08-01T07:39:14;22.30;65.00
51988;DHT22;38003;52.012;4.346;2022-08-01T07:41:42;22.40;65.10
51988;DHT22;38003;52.012;4.346;2022-08-01T07:44:30;22.40;65.30
51988;DHT22;38003;52.012;4.346;2022-08-01T07:46:58;22.40;65.50
51988;DHT22;38003;52.012;4.346;2022-08-01T07:49:27;22.60;65.50
51988;DHT22;38003;52.012;4.346;2022-08-01T07:51:56;22.60;64.90
51988;DHT22;38003;52.012;4.346;2022-08-01T07:54:30;22.60;64.90
51988;DHT22;38003;52.012;4.346;2022-08-01T07:57:00;22.60;65.20
51988;DHT22;38003;52.012;4.346;2022-08-01T07:59:28;22.30;65.00
51988;DHT22;38003;52.012;4.346;2022-08-01T08:01:56;22.50;64.60
51988;DHT22;38003;52.012;4.346;2022-08-01T08:04:24;22.50;64.50
51988;DHT22;38003;52.012;4.346;2022-08-01T08:06:53;22.50;64.50
51988;DHT22;38003;52.012;4.346;2022-08-01T08:09:21;22.70;64.50
51988;DHT22;38003;52.012;4.346;2022-08-01T08:11:49;22.60;64.20
51988;DHT22;38003;52.012;4.346;2022-08-01T08:14:18;22.60;64.00
51988;DHT22;38003;52.012;4.346;2022-08-01T08:16:46;22.70;63.80
51988;DHT22;38003;52.012;4.346;2022-08-01T08:19:14;22.60;63.90
51988;DHT22;38003;52.012;4.346;2022-08-01T08:21:42;22.70;63.60
51988;DHT22;38003;52.012;4.346;2022-08-01T08:24:12;23.20;63.50
51988;DHT22;38003;52.012;4.346;2022-08-01T08:26:55;22.80;63.40
51988;DHT22;38003;52.012;4.346;2022-08-01T08:29:23;22.80;63.80
51988;DHT22;38003;52.012;4.346;2022-08-01T08:31:52;22.80;63.50
51988;DHT22;38003;52.012;4.346;2022-08-01T08:34:20;22.80;64.00
51988;DHT22;38003;52.012;4.346;2022-08-01T08:36:48;22.80;63.30
51988;DHT22;38003;52.012;4.346;2022-08-01T08:39:18;23.00;63.30
51988;DHT22;38003;52.012;4.346;2022-08-01T08:41:46;23.00;62.60
51988;DHT22;38003;52.012;4.346;2022-08-01T08:44:16;22.80;62.50
51988;DHT22;38003;52.012;4.346;2022-08-01T08:46:46;23.00;62.50
51988;DHT22;38003;52.012;4.346;2022-08-01T08:49:16;23.00;62.60
51988;DHT22;38003;52.012;4.346;2022-08-01T08:51:48;23.00;62.50
51988;DHT22;38003;52.012;4.346;2022-08-01T08:54:19;23.10;62.20
51988;DHT22;38003;52.012;4.346;2022-08-01T08:56:55;23.60;62.40
51988;DHT22;38003;52.012;4.346;2022-08-01T08:59:23;23.00;62.00
51988;DHT22;38003;52.012;4.346;2022-08-01T09:01:52;23.60;62.10
51988;DHT22;38003;52.012;4.346;2022-08-01T09:04:20;23.30;62.30
51988;DHT22;38003;52.012;4.346;2022-08-01T09:06:52;23.20;62.30
51988;DHT22;38003;52.012;4.346;2022-08-01T09:09:22;23.20;61.80
51988;DHT22;38003;52.012;4.346;2022-08-01T09:11:50;23.30;61.80
51988;DHT22;38003;52.012;4.346;2022-08-01T09:14:24;23.30;61.90
51988;DHT22;38003;52.012;4.346;2022-08-01T09:17:02;23.30;61.80
51988;DHT22;38003;52.012;4.346;2022-08-01T09:19:37;23.60;61.60
51988;DHT22;38003;52.012;4.346;2022-08-01T09:22:09;23.30;61.20
51988;DHT22;38003;52.012;4.346;2022-08-01T09:24:39;23.40;61.30
51988;DHT22;38003;52.012;4.346;2022-08-01T09:27:18;23.40;61.30
51988;DHT22;38003;52.012;4.346;2022-08-01T09:29:48;23.60;61.20
51988;DHT22;38003;52.012;4.346;2022-08-01T09:32:28;23.60;61.30
51988;DHT22;38003;52.012;4.346;2022-08-01T09:35:22;23.70;61.40
51988;DHT22;38003;52.012;4.346;2022-08-01T09:38:14;23.90;61.10
51988;DHT22;38003;52.012;4.346;2022-08-01T09:40:48;24.00;60.90
51988;DHT22;38003;52.012;4.346;2022-08-01T09:43:16;24.10;60.70
51988;DHT22;38003;52.012;4.346;2022-08-01T09:45:45;24.10;60.30
51988;DHT22;38003;52.012;4.346;2022-08-01T09:48:18;24.20;60.30
51988;DHT22;38003;52.012;4.346;2022-08-01T09:50:54;24.20;60.20
51988;DHT22;38003;52.012;4.346;2022-08-01T09:53:43;24.20;59.90
51988;DHT22;38003;52.012;4.346;2022-08-01T09:56:19;24.30;59.80
51988;DHT22;38003;52.012;4.346;2022-08-01T09:58:52;24.40;60.10
51988;DHT22;38003;52.012;4.346;2022-08-01T10:01:28;24.40;58.90
51988;DHT22;38003;52.012;4.346;2022-08-01T10:04:08;24.30;59.30
51988;DHT22;38003;52.012;4.346;2022-08-01T10:06:37;24.20;59.50
51988;DHT22;38003;52.012;4.346;2022-08-01T10:09:07;24.20;59.50
51988;DHT22;38003;52.012;4.346;2022-08-01T10:11:38;24.30;59.70
51988;DHT22;38003;52.012;4.346;2022-08-01T10:14:07;24.20;59.90
51988;DHT22;38003;52.012;4.346;2022-08-01T10:16:36;24.20;59.50
51988;DHT22;38003;52.012;4.346;2022-08-01T10:19:06;24.10;58.70
51988;DHT22;38003;52.012;4.346;2022-08-01T10:21:41;24.10;59.70
51988;DHT22;38003;52.012;4.346;2022-08-01T10:24:27;24.20;59.20
51988;DHT22;38003;52.012;4.346;2022-08-01T10:26:58;24.30;59.10
51988;DHT22;38003;52.012;4.346;2022-08-01T10:29:37;24.40;58.60
51988;DHT22;38003;52.012;4.346;2022-08-01T10:32:26;24.50;58.80
51988;DHT22;38003;52.012;4.346;2022-08-01T10:34:55;24.40;59.00
51988;DHT22;38003;52.012;4.346;2022-08-01T10:37:24;24.50;59.00
51988;DHT22;38003;52.012;4.346;2022-08-01T10:39:53;24.50;58.20
51988;DHT22;38003;52.012;4.346;2022-08-01T10:42:44;24.40;58.70
51988;DHT22;38003;52.012;4.346;2022-08-01T10:45:13;24.40;58.80
51988;DHT22;38003;52.012;4.346;2022-08-01T10:47:47;24.40;58.30
51988;DHT22;38003;52.012;4.346;2022-08-01T10:50:21;24.50;58.30
51988;DHT22;38003;52.012;4.346;2022-08-01T10:53:08;24.60;57.70
51988;DHT22;38003;52.012;4.346;2022-08-01T10:55:50;24.70;58.00
51988;DHT22;38003;52.012;4.346;2022-08-01T10:58:24;24.80;56.90
51988;DHT22;38003;52.012;4.346;2022-08-01T11:01:23;24.80;57.20
51988;DHT22;38003;52.012;4.346;2022-08-01T11:03:58;24.70;56.60
51988;DHT22;38003;52.012;4.346;2022-08-01T11:06:38;24.60;57.00
51988;DHT22;38003;52.012;4.346;2022-08-01T11:09:23;24.60;57.00
51988;DHT22;38003;52.012;4.346;2022-08-01T11:12:05;24.60;57.00
51988;DHT22;38003;52.012;4.346;2022-08-01T11:15:21;24.80;57.60
51988;DHT22;38003;52.012;4.346;2022-08-01T11:18:00;24.90;56.40
51988;DHT22;38003;52.012;4.346;2022-08-01T11:20:31;24.80;57.10
51988;DHT22;38003;52.012;4.346;2022-08-01T11:23:17;24.70;56.20
51988;DHT22;38003;52.012;4.346;2022-08-01T11:26:16;24.60;56.20
51988;DHT22;38003;52.012;4.346;2022-08-01T11:29:16;24.70;56.40
51988;DHT22;38003;52.012;4.346;2022-08-01T11:31:49;25.00;55.80
51988;DHT22;38003;52.012;4.346;2022-08-01T11:34:18;25.30;55.80
51988;DHT22;38003;52.012;4.346;2022-08-01T11:36:47;25.50;55.20
51988;DHT22;38003;52.012;4.346;2022-08-01T11:39:24;25.70;53.70
51988;DHT22;38003;52.012;4.346;2022-08-01T11:41:55;25.90;54.20
51988;DHT22;38003;52.012;4.346;2022-08-01T11:44:50;26.00;54.10
51988;DHT22;38003;52.012;4.346;2022-08-01T11:47:43;26.20;54.10
51988;DHT22;38003;52.012;4.346;2022-08-01T11:50:30;26.10;53.70
51988;DHT22;38003;52.012;4.346;2022-08-01T11:52:59;26.30;53.60
51988;DHT22;38003;52.012;4.346;2022-08-01T11:55:28;26.20;53.30
51988;DHT22;38003;52.012;4.346;2022-08-01T11:58:01;26.30;53.60
51988;DHT22;38003;52.012;4.346;2022-08-01T12:00:29;26.10;54.20
51988;DHT22;38003;52.012;4.346;2022-08-01T12:03:00;26.00;53.90
51988;DHT22;38003;52.012;4.346;2022-08-01T12:05:31;26.00;54.20
51988;DHT22;38003;52.012;4.346;2022-08-01T12:08:01;26.00;53.70
51988;DHT22;38003;52.012;4.346;2022-08-01T12:10:33;26.20;53.70
51988;DHT22;38003;52.012;4.346;2022-08-01T12:13:15;26.00;53.70
51988;DHT22;38003;52.012;4.346;2022-08-01T12:15:44;26.10;52.90
51988;DHT22;38003;52.012;4.346;2022-08-01T12:18:14;26.00;52.70
51988;DHT22;38003;52.012;4.346;2022-08-01T12:20:44;25.90;53.40
51988;DHT22;38003;52.012;4.346;2022-08-01T12:23:23;25.80;53.00
51988;DHT22;38003;52.012;4.346;2022-08-01T12:25:51;25.90;53.10
51988;DHT22;38003;52.012;4.346;2022-08-01T12:28:19;25.90;52.30
51988;DHT22;38003;52.012;4.346;2022-08-01T12:30:49;25.90;52.50
51988;DHT22;38003;52.012;4.346;2022-08-01T12:33:20;25.90;52.70
51988;DHT22;38003;52.012;4.346;2022-08-01T12:35:48;25.90;52.60
51988;DHT22;38003;52.012;4.346;2022-08-01T12:38:19;26.00;52.90
51988;DHT22;38003;52.012;4.346;2022-08-01T12:40:48;26.10;52.80
51988;DHT22;38003;52.012;4.346;2022-08-01T12:43:21;26.10;52.30
51988;DHT22;38003;52.012;4.346;2022-08-01T12:45:56;26.30;52.70
51988;DHT22;38003;52.012;4.346;2022-08-01T12:48:27;26.30;52.10
51988;DHT22;38003;52.012;4.346;2022-08-01T12:50:58;26.40;51.90
51988;DHT22;38003;52.012;4.346;2022-08-01T12:53:27;26.50;52.00
51988;DHT22;38003;52.012;4.346;2022-08-01T12:56:07;26.60;51.90
51988;DHT22;38003;52.012;4.346;2022-08-01T12:58:36;26.70;51.80
51988;DHT22;38003;52.012;4.346;2022-08-01T13:01:05;26.60;51.90
51988;DHT22;38003;52.012;4.346;2022-08-01T13:03:35;26.70;51.50
51988;DHT22;38003;52.012;4.346;2022-08-01T13:06:10;26.70;50.40
51988;DHT22;38003;52.012;4.346;2022-08-01T13:08:38;26.80;50.30
51988;DHT22;38003;52.012;4.346;2022-08-01T13:11:08;26.90;50.50
51988;DHT22;38003;52.012;4.346;2022-08-01T13:13:39;26.90;50.20
51988;DHT22;38003;52.012;4.346;2022-08-01T13:16:08;26.90;50.10
51988;DHT22;38003;52.012;4.346;2022-08-01T13:18:48;27.10;50.10
51988;DHT22;38003;52.012;4.346;2022-08-01T13:21:17;27.30;50.40
51988;DHT22;38003;52.012;4.346;2022-08-01T13:24:01;27.40;49.30
51988;DHT22;38003;52.012;4.346;2022-08-01T13:26:43;27.50;49.90
51988;DHT22;38003;52.012;4.346;2022-08-01T13:29:13;27.70;48.20
51988;DHT22;38003;52.012;4.346;2022-08-01T13:31:41;27.70;49.40
51988;DHT22;38003;52.012;4.346;2022-08-01T13:34:11;27.90;48.70
51988;DHT22;38003;52.012;4.346;2022-08-01T13:36:39;28.10;48.00
51988;DHT22;38003;52.012;4.346;2022-08-01T13:39:14;28.30;47.00
51988;DHT22;38003;52.012;4.346;2022-08-01T13:42:00;28.40;47.90
51988;DHT22;38003;52.012;4.346;2022-08-01T13:44:28;28.30;47.40
51988;DHT22;38003;52.012;4.346;2022-08-01T13:46:56;28.50;47.10
51988;DHT22;38003;52.012;4.346;2022-08-01T13:49:26;28.70;47.40
51988;DHT22;38003;52.012;4.346;2022-08-01T13:52:04;28.80;46.10
51988;DHT22;38003;52.012;4.346;2022-08-01T13:54:33;28.80;46.00
51988;DHT22;38003;52.012;4.346;2022-08-01T13:57:01;28.80;45.20
51988;DHT22;38003;52.012;4.346;2022-08-01T13:59:29;28.70;44.70
51988;DHT22;38003;52.012;4.346;2022-08-01T14:01:57;28.70;46.20
51988;DHT22;38003;52.012;4.346;2022-08-01T14:04:26;28.80;45.30
51988;DHT22;38003;52.012;4.346;2022-08-01T14:06:54;28.60;46.40
51988;DHT22;38003;52.012;4.346;2022-08-01T14:09:24;28.50;45.50
51988;DHT22;38003;52.012;4.346;2022-08-01T14:11:58;28.40;44.80
51988;DHT22;38003;52.012;4.346;2022-08-01T14:14:26;28.20;44.50
51988;DHT22;38003;52.012;4.346;2022-08-01T14:16:54;28.30;44.20
51988;DHT22;38003;52.012;4.346;2022-08-01T14:19:22;28.30;45.00
51988;DHT22;38003;52.012;4.346;2022-08-01T14:22:05;28.20;44.10
51988;DHT22;38003;52.012;4.346;2022-08-01T14:24:34;28.30;44.80
51988;DHT22;38003;52.012;4.346;2022-08-01T14:27:04;28.30;44.70
51988;DHT22;38003;52.012;4.346;2022-08-01T14:29:32;28.40;45.00
51988;DHT22;38003;52.012;4.346;2022-08-01T14:32:20;28.50;44.10
51988;DHT22;38003;52.012;4.346;2022-08-01T14:34:54;28.30;44.30
51988;DHT22;38003;52.012;4.346;2022-08-01T14:37:23;28.20;45.00
51988;DHT22;38003;52.012;4.346;2022-08-01T14:39:54;28.20;44.90
51988;DHT22;38003;52.012;4.346;2022-08-01T14:42:24;28.00;44.50
51988;DHT22;38003;52.012;4.346;2022-08-01T14:44:52;28.10;46.20
51988;DHT22;38003;52.012;4.346;2022-08-01T14:47:20;28.00;44.60
51988;DHT22;38003;52.012;4.346;2022-08-01T14:49:49;28.10;44.70
51988;DHT22;38003;52.012;4.346;2022-08-01T14:52:17;28.00;44.80
51988;DHT22;38003;52.012;4.346;2022-08-01T14:54:47;27.90;44.60
51988;DHT22;38003;52.012;4.346;2022-08-01T14:57:15;28.00;44.50
51988;DHT22;38003;52.012;4.346;2022-08-01T14:59:45;28.10;44.50
51988;DHT22;38003;52.012;4.346;2022-08-01T15:02:13;28.00;44.80
51988;DHT22;38003;52.012;4.346;2022-08-01T15:04:43;27.90;44.20
51988;DHT22;38003;52.012;4.346;2022-08-01T15:07:12;27.80;43.90
51988;DHT22;38003;52.012;4.346;2022-08-01T15:09:40;27.80;44.30
51988;DHT22;38003;52.012;4.346;2022-08-01T15:12:10;27.80;44.50
51988;DHT22;38003;52.012;4.346;2022-08-01T15:14:38;27.60;43.00
51988;DHT22;38003;52.012;4.346;2022-08-01T15:17:17;27.60;44.10
51988;DHT22;38003;52.012;4.346;2022-08-01T15:19:48;27.70;44.00
51988;DHT22;38003;52.012;4.346;2022-08-01T15:22:17;27.60;44.30
51988;DHT22;38003;52.012;4.346;2022-08-01T15:24:45;27.60;44.80
51988;DHT22;38003;52.012;4.346;2022-08-01T15:27:15;27.60;43.70
51988;DHT22;38003;52.012;4.346;2022-08-01T15:29:44;27.40;43.40
51988;DHT22;38003;52.012;4.346;2022-08-01T15:32:12;27.50;44.00
51988;DHT22;38003;52.012;4.346;2022-08-01T15:34:41;27.40;43.30
51988;DHT22;38003;52.012;4.346;2022-08-01T15:37:09;27.20;43.00
51988;DHT22;38003;52.012;4.346;2022-08-01T15:39:38;27.20;43.30
51988;DHT22;38003;52.012;4.346;2022-08-01T15:42:08;27.30;44.20
51988;DHT22;38003;52.012;4.346;2022-08-01T15:44:38;27.30;43.30
51988;DHT22;38003;52.012;4.346;2022-08-01T15:47:07;27.30;42.90
51988;DHT22;38003;52.012;4.346;2022-08-01T15:49:36;27.10;42.90
51988;DHT22;38003;52.012;4.346;2022-08-01T15:52:04;27.10;43.20
51988;DHT22;38003;52.012;4.346;2022-08-01T15:54:47;27.10;44.30
51988;DHT22;38003;52.012;4.346;2022-08-01T15:57:15;27.00;42.80
51988;DHT22;38003;52.012;4.346;2022-08-01T15:59:44;27.00;43.30